Strong, AR (71765)

9:07 AM CDT on July 30, 2014 (GMT -0500)
South Arkansas Regional At Goodwin (KELD) Elev 276 ft | 33.22 °N, 92.81 °W | Change Station

Current weather conditions updated 14 minutes ago

Clear
Clear
73 °F
Feels Like 73 °F
N
7
Wind Variable Wind from SSE

Today is forecast to be nearly the same temperature as yesterday. Partly cloudy with a stray thunderstorm tonight.

Today
High -- | Low -- °F
--% Chance of Precip.
Yesterday
High -- | Low -- °F
Precip. -- in
6:21 AM 8:10 PM
Waxing Crescent, 12% visible
Pressure 30.12 in
Visibility 10.0 miles
Clouds Clear
Dew Point 62 °F
Humidity 68%
Rainfall 0.00 in
Snow Depth Not available.
UV 3 out of 12
Pollen 4.40 out of 12
Air Quality Not available.
Flu Activity Not available.
METAR KELD 301353Z AUTO 15006KT 10SM CLR 23/17 A3013 RMK AO2 SLP200 T02280167

More Conditions Fewer Conditions

Pressure 30.12 in
Visibility 10.0 miles
Clouds Clear
Dew Point 62 °F
Humidity 68%
Rainfall 0.00 in
Snow Depth Not available.
UV 3 out of 12
Pollen 4.40 out of 12
Air Quality Not available.
Flu Activity Not available.
METAR KELD 301353Z AUTO 15006KT 10SM CLR 23/17 A3013 RMK AO2 SLP200 T02280167

More Conditions Fewer Conditions

10-Day Weather Forecast

Almanac

Astronomy

Jul. 30, 2014 Rise Set
Actual Time 6:21 AM CDT 8:10 PM CDT
Civil Twilight 5:54 AM CDT 8:37 PM CDT
Nautical Twilight 5:21 AM CDT 9:10 PM CDT
Astronomical Twilight 4:46 AM CDT 9:45 PM CDT
Moon 9:40 AM CDT 10:08 PM CDT
Length of Visible Light 14h 43m
Length of Day
13h 49m
Tomorrow will be 1m 30s shorter.
Waxing Crescent, 12% of the Moon is Illuminated
Today
Waxing Crescent
Aug 3
First Quarter
Aug 10
Full
Aug 17
Last Quarter
Aug 25
New

Today's Extremes

State Highs State Lows

Community

WunderPhotos

Upload Photos

1,739,082 photos uploaded!

Nearby

Snow Depth

Station Depth Elevation
No new snow has been reported.

Earthquake Activity

City Distance Mag. Time & Date
No recent earthquake activity has been reported nearby.
Minimum magnitude displayed is 2.5.

Coastal Water Temperatures

Place Temperature
No Stations Reporting

Nearby Weather Stations

Station Location Temp. Heat Index Dew Point Humidity Wind Precip. Elev Updated Type
MesoWest NORPLT , Norphlet, AR 62 °F - - - North  at  - 0.00 in / hr 117 ft 5:45 AM CDT MADIS
Hampton, AR, Hampton, AR 72.1 °F 74 °F 63 °F 74% South  at  0.7 mph 0.00 in / hr 200 ft 9:07 AM CDT Rapid Fire

Show More Stations Show Fewer Stations